sensor_id;sensor_type;location;lat;lon;timestamp;P1;durP1;ratioP1;P2;durP2;ratioP2
76123;SDS011;65173;48.066;20.976;2022-11-22T00:02:10;45.35;;;15.13;;
76123;SDS011;65173;48.066;20.976;2022-11-22T00:05:14;71.95;;;18.77;;
76123;SDS011;65173;48.066;20.976;2022-11-22T00:08:16;59.37;;;16.63;;
76123;SDS011;65173;48.066;20.976;2022-11-22T00:11:19;65.32;;;16.38;;
76123;SDS011;65173;48.066;20.976;2022-11-22T00:14:22;77.40;;;18.08;;
76123;SDS011;65173;48.066;20.976;2022-11-22T00:17:25;59.83;;;16.77;;
76123;SDS011;65173;48.066;20.976;2022-11-22T00:20:27;62.15;;;17.73;;
76123;SDS011;65173;48.066;20.976;2022-11-22T00:23:30;68.45;;;16.33;;
76123;SDS011;65173;48.066;20.976;2022-11-22T00:26:33;55.25;;;14.60;;
76123;SDS011;65173;48.066;20.976;2022-11-22T00:29:36;39.90;;;13.87;;
76123;SDS011;65173;48.066;20.976;2022-11-22T00:32:39;31.60;;;13.98;;
76123;SDS011;65173;48.066;20.976;2022-11-22T00:35:43;38.22;;;13.25;;
76123;SDS011;65173;48.066;20.976;2022-11-22T00:38:46;48.83;;;14.60;;
76123;SDS011;65173;48.066;20.976;2022-11-22T00:41:49;47.33;;;14.88;;
76123;SDS011;65173;48.066;20.976;2022-11-22T00:44:52;52.95;;;17.25;;
76123;SDS011;65173;48.066;20.976;2022-11-22T00:47:55;61.13;;;18.77;;
76123;SDS011;65173;48.066;20.976;2022-11-22T00:50:57;47.08;;;15.25;;
76123;SDS011;65173;48.066;20.976;2022-11-22T00:54:00;50.75;;;14.98;;
76123;SDS011;65173;48.066;20.976;2022-11-22T00:57:03;28.00;;;11.57;;
76123;SDS011;65173;48.066;20.976;2022-11-22T01:00:06;39.50;;;13.63;;
76123;SDS011;65173;48.066;20.976;2022-11-22T01:03:10;52.40;;;16.20;;
76123;SDS011;65173;48.066;20.976;2022-11-22T01:06:14;64.50;;;16.52;;
76123;SDS011;65173;48.066;20.976;2022-11-22T01:09:18;44.17;;;15.47;;
76123;SDS011;65173;48.066;20.976;2022-11-22T01:12:22;43.92;;;13.85;;
76123;SDS011;65173;48.066;20.976;2022-11-22T01:15:24;41.67;;;13.32;;
76123;SDS011;65173;48.066;20.976;2022-11-22T01:18:28;48.83;;;14.20;;
76123;SDS011;65173;48.066;20.976;2022-11-22T01:21:30;48.17;;;14.95;;
76123;SDS011;65173;48.066;20.976;2022-11-22T01:24:33;50.25;;;14.55;;
76123;SDS011;65173;48.066;20.976;2022-11-22T01:27:36;50.00;;;15.32;;
76123;SDS011;65173;48.066;20.976;2022-11-22T01:30:39;39.33;;;12.60;;
76123;SDS011;65173;48.066;20.976;2022-11-22T01:33:43;57.60;;;15.43;;
76123;SDS011;65173;48.066;20.976;2022-11-22T01:36:45;46.47;;;14.38;;
76123;SDS011;65173;48.066;20.976;2022-11-22T01:39:48;41.63;;;13.13;;
76123;SDS011;65173;48.066;20.976;2022-11-22T01:42:55;36.83;;;13.02;;
76123;SDS011;65173;48.066;20.976;2022-11-22T01:46:02;39.50;;;14.43;;
76123;SDS011;65173;48.066;20.976;2022-11-22T01:49:34;47.17;;;15.48;;
76123;SDS011;65173;48.066;20.976;2022-11-22T01:52:42;30.95;;;12.32;;
76123;SDS011;65173;48.066;20.976;2022-11-22T01:55:46;55.55;;;16.58;;
76123;SDS011;65173;48.066;20.976;2022-11-22T01:58:52;41.70;;;14.20;;
76123;SDS011;65173;48.066;20.976;2022-11-22T02:01:58;47.40;;;12.63;;
76123;SDS011;65173;48.066;20.976;2022-11-22T02:05:03;55.55;;;16.15;;
76123;SDS011;65173;48.066;20.976;2022-11-22T02:08:17;45.85;;;13.48;;
76123;SDS011;65173;48.066;20.976;2022-11-22T02:11:26;45.27;;;13.63;;
76123;SDS011;65173;48.066;20.976;2022-11-22T02:14:35;46.08;;;13.82;;
76123;SDS011;65173;48.066;20.976;2022-11-22T02:17:40;34.30;;;12.95;;
76123;SDS011;65173;48.066;20.976;2022-11-22T02:20:42;48.15;;;13.63;;
76123;SDS011;65173;48.066;20.976;2022-11-22T02:26:57;36.67;;;13.63;;
76123;SDS011;65173;48.066;20.976;2022-11-22T02:29:59;32.63;;;13.15;;
76123;SDS011;65173;48.066;20.976;2022-11-22T02:33:02;32.43;;;12.70;;
76123;SDS011;65173;48.066;20.976;2022-11-22T02:36:05;42.33;;;13.32;;
76123;SDS011;65173;48.066;20.976;2022-11-22T02:39:08;42.65;;;11.98;;
76123;SDS011;65173;48.066;20.976;2022-11-22T02:42:16;38.83;;;11.30;;
76123;SDS011;65173;48.066;20.976;2022-11-22T02:45:19;48.78;;;11.48;;
76123;SDS011;65173;48.066;20.976;2022-11-22T02:48:22;35.28;;;11.35;;
76123;SDS011;65173;48.066;20.976;2022-11-22T02:51:24;37.38;;;11.95;;
76123;SDS011;65173;48.066;20.976;2022-11-22T02:54:27;42.30;;;11.02;;
76123;SDS011;65173;48.066;20.976;2022-11-22T02:57:30;43.58;;;11.68;;
76123;SDS011;65173;48.066;20.976;2022-11-22T03:00:34;35.97;;;10.68;;
76123;SDS011;65173;48.066;20.976;2022-11-22T03:03:38;40.47;;;11.37;;
76123;SDS011;65173;48.066;20.976;2022-11-22T03:06:41;37.53;;;11.48;;
76123;SDS011;65173;48.066;20.976;2022-11-22T03:09:44;40.60;;;11.07;;
76123;SDS011;65173;48.066;20.976;2022-11-22T03:12:46;45.20;;;11.97;;
76123;SDS011;65173;48.066;20.976;2022-11-22T03:15:49;32.22;;;10.73;;
76123;SDS011;65173;48.066;20.976;2022-11-22T03:18:52;32.80;;;11.93;;
76123;SDS011;65173;48.066;20.976;2022-11-22T03:21:55;34.80;;;12.25;;
76123;SDS011;65173;48.066;20.976;2022-11-22T03:24:58;36.33;;;12.50;;
76123;SDS011;65173;48.066;20.976;2022-11-22T03:28:00;37.33;;;13.18;;
76123;SDS011;65173;48.066;20.976;2022-11-22T03:31:04;36.58;;;11.82;;
76123;SDS011;65173;48.066;20.976;2022-11-22T03:34:08;34.03;;;11.70;;
76123;SDS011;65173;48.066;20.976;2022-11-22T03:37:12;44.80;;;12.82;;
76123;SDS011;65173;48.066;20.976;2022-11-22T03:40:15;35.97;;;11.95;;
76123;SDS011;65173;48.066;20.976;2022-11-22T03:43:19;24.77;;;10.67;;
76123;SDS011;65173;48.066;20.976;2022-11-22T03:46:22;30.90;;;11.23;;
76123;SDS011;65173;48.066;20.976;2022-11-22T03:49:24;24.55;;;10.70;;
76123;SDS011;65173;48.066;20.976;2022-11-22T03:52:28;39.05;;;13.45;;
76123;SDS011;65173;48.066;20.976;2022-11-22T03:55:30;32.72;;;11.82;;
76123;SDS011;65173;48.066;20.976;2022-11-22T03:58:34;31.65;;;12.27;;
76123;SDS011;65173;48.066;20.976;2022-11-22T04:01:37;42.03;;;11.48;;
76123;SDS011;65173;48.066;20.976;2022-11-22T04:04:39;34.13;;;11.53;;
76123;SDS011;65173;48.066;20.976;2022-11-22T04:07:42;42.10;;;10.88;;
76123;SDS011;65173;48.066;20.976;2022-11-22T04:10:46;61.28;;;18.98;;
76123;SDS011;65173;48.066;20.976;2022-11-22T04:13:50;38.60;;;13.50;;
76123;SDS011;65173;48.066;20.976;2022-11-22T04:17:12;41.40;;;12.95;;
76123;SDS011;65173;48.066;20.976;2022-11-22T04:20:19;43.03;;;12.32;;
76123;SDS011;65173;48.066;20.976;2022-11-22T04:23:42;28.88;;;10.65;;
76123;SDS011;65173;48.066;20.976;2022-11-22T04:26:45;34.58;;;12.00;;
76123;SDS011;65173;48.066;20.976;2022-11-22T04:29:50;31.08;;;10.52;;
76123;SDS011;65173;48.066;20.976;2022-11-22T04:32:52;36.33;;;11.18;;
76123;SDS011;65173;48.066;20.976;2022-11-22T04:35:55;26.97;;;10.53;;
76123;SDS011;65173;48.066;20.976;2022-11-22T04:38:58;31.77;;;10.25;;
76123;SDS011;65173;48.066;20.976;2022-11-22T04:42:00;23.65;;;10.15;;
76123;SDS011;65173;48.066;20.976;2022-11-22T04:45:22;29.67;;;10.87;;
76123;SDS011;65173;48.066;20.976;2022-11-22T04:48:25;36.45;;;10.73;;
76123;SDS011;65173;48.066;20.976;2022-11-22T04:51:27;34.83;;;9.63;;
76123;SDS011;65173;48.066;20.976;2022-11-22T04:54:49;40.17;;;11.10;;
76123;SDS011;65173;48.066;20.976;2022-11-22T04:57:51;28.92;;;10.45;;
76123;SDS011;65173;48.066;20.976;2022-11-22T05:01:00;33.05;;;11.05;;
76123;SDS011;65173;48.066;20.976;2022-11-22T05:04:03;29.55;;;10.25;;
76123;SDS011;65173;48.066;20.976;2022-11-22T05:07:05;37.00;;;10.87;;
76123;SDS011;65173;48.066;20.976;2022-11-22T05:10:08;26.88;;;11.35;;
76123;SDS011;65173;48.066;20.976;2022-11-22T05:13:11;30.45;;;10.93;;
76123;SDS011;65173;48.066;20.976;2022-11-22T05:16:14;26.80;;;10.53;;
76123;SDS011;65173;48.066;20.976;2022-11-22T05:19:17;33.58;;;11.07;;
76123;SDS011;65173;48.066;20.976;2022-11-22T05:22:25;26.20;;;10.40;;
76123;SDS011;65173;48.066;20.976;2022-11-22T05:25:47;35.67;;;12.70;;
76123;SDS011;65173;48.066;20.976;2022-11-22T05:28:50;38.13;;;15.40;;
76123;SDS011;65173;48.066;20.976;2022-11-22T05:31:53;30.05;;;13.20;;
76123;SDS011;65173;48.066;20.976;2022-11-22T05:34:56;48.70;;;17.30;;
76123;SDS011;65173;48.066;20.976;2022-11-22T05:37:59;32.23;;;12.17;;
76123;SDS011;65173;48.066;20.976;2022-11-22T05:41:01;34.20;;;14.35;;
76123;SDS011;65173;48.066;20.976;2022-11-22T05:44:09;30.45;;;10.88;;
76123;SDS011;65173;48.066;20.976;2022-11-22T05:47:12;25.00;;;9.33;;
76123;SDS011;65173;48.066;20.976;2022-11-22T05:50:15;28.10;;;11.52;;
76123;SDS011;65173;48.066;20.976;2022-11-22T05:53:28;34.55;;;14.07;;
76123;SDS011;65173;48.066;20.976;2022-11-22T05:56:30;27.42;;;10.95;;
76123;SDS011;65173;48.066;20.976;2022-11-22T05:59:33;25.85;;;11.18;;
76123;SDS011;65173;48.066;20.976;2022-11-22T06:02:42;27.42;;;11.30;;
76123;SDS011;65173;48.066;20.976;2022-11-22T06:05:49;26.50;;;11.02;;
76123;SDS011;65173;48.066;20.976;2022-11-22T06:08:53;27.93;;;11.10;;
76123;SDS011;65173;48.066;20.976;2022-11-22T06:11:55;26.75;;;11.15;;
76123;SDS011;65173;48.066;20.976;2022-11-22T06:14:58;29.83;;;10.23;;
76123;SDS011;65173;48.066;20.976;2022-11-22T06:18:01;23.43;;;9.97;;
76123;SDS011;65173;48.066;20.976;2022-11-22T06:21:05;25.92;;;10.40;;
76123;SDS011;65173;48.066;20.976;2022-11-22T06:24:09;25.08;;;10.02;;
76123;SDS011;65173;48.066;20.976;2022-11-22T06:27:12;22.02;;;9.52;;
76123;SDS011;65173;48.066;20.976;2022-11-22T06:30:14;30.17;;;10.88;;
76123;SDS011;65173;48.066;20.976;2022-11-22T06:33:17;21.92;;;9.85;;
76123;SDS011;65173;48.066;20.976;2022-11-22T06:36:21;26.42;;;10.45;;
76123;SDS011;65173;48.066;20.976;2022-11-22T06:39:25;27.03;;;10.57;;
76123;SDS011;65173;48.066;20.976;2022-11-22T06:42:29;27.33;;;9.77;;
76123;SDS011;65173;48.066;20.976;2022-11-22T06:45:31;25.27;;;10.25;;
76123;SDS011;65173;48.066;20.976;2022-11-22T06:48:35;22.47;;;9.10;;
76123;SDS011;65173;48.066;20.976;2022-11-22T06:51:39;24.50;;;10.20;;
76123;SDS011;65173;48.066;20.976;2022-11-22T06:54:42;24.02;;;10.18;;
76123;SDS011;65173;48.066;20.976;2022-11-22T06:57:48;27.13;;;10.80;;
76123;SDS011;65173;48.066;20.976;2022-11-22T07:00:52;43.88;;;15.02;;
76123;SDS011;65173;48.066;20.976;2022-11-22T07:03:55;64.15;;;26.75;;
76123;SDS011;65173;48.066;20.976;2022-11-22T07:06:59;51.17;;;21.00;;
76123;SDS011;65173;48.066;20.976;2022-11-22T07:10:02;29.80;;;11.43;;
76123;SDS011;65173;48.066;20.976;2022-11-22T07:13:05;31.08;;;11.43;;
76123;SDS011;65173;48.066;20.976;2022-11-22T07:16:08;32.55;;;10.77;;
76123;SDS011;65173;48.066;20.976;2022-11-22T07:19:12;29.70;;;10.93;;
76123;SDS011;65173;48.066;20.976;2022-11-22T07:22:15;31.55;;;11.75;;
76123;SDS011;65173;48.066;20.976;2022-11-22T07:25:19;30.45;;;12.88;;
76123;SDS011;65173;48.066;20.976;2022-11-22T07:28:22;35.65;;;13.85;;
76123;SDS011;65173;48.066;20.976;2022-11-22T07:31:25;29.20;;;10.48;;
76123;SDS011;65173;48.066;20.976;2022-11-22T07:34:27;54.85;;;18.13;;
76123;SDS011;65173;48.066;20.976;2022-11-22T07:37:30;37.47;;;14.80;;
76123;SDS011;65173;48.066;20.976;2022-11-22T07:40:33;48.63;;;16.00;;
76123;SDS011;65173;48.066;20.976;2022-11-22T07:43:36;34.00;;;13.32;;
76123;SDS011;65173;48.066;20.976;2022-11-22T07:46:39;25.95;;;10.70;;
76123;SDS011;65173;48.066;20.976;2022-11-22T07:49:42;28.33;;;11.60;;
76123;SDS011;65173;48.066;20.976;2022-11-22T07:52:44;26.67;;;11.73;;
76123;SDS011;65173;48.066;20.976;2022-11-22T07:55:47;31.75;;;13.70;;
76123;SDS011;65173;48.066;20.976;2022-11-22T07:58:49;29.65;;;13.15;;
76123;SDS011;65173;48.066;20.976;2022-11-22T08:01:53;29.98;;;12.52;;
76123;SDS011;65173;48.066;20.976;2022-11-22T08:04:56;26.77;;;9.85;;
76123;SDS011;65173;48.066;20.976;2022-11-22T08:07:58;27.00;;;10.85;;
76123;SDS011;65173;48.066;20.976;2022-11-22T08:11:02;22.37;;;10.03;;
76123;SDS011;65173;48.066;20.976;2022-11-22T08:14:06;25.02;;;9.65;;
76123;SDS011;65173;48.066;20.976;2022-11-22T08:17:08;20.83;;;9.05;;
76123;SDS011;65173;48.066;20.976;2022-11-22T08:20:11;22.77;;;9.23;;
76123;SDS011;65173;48.066;20.976;2022-11-22T08:23:14;19.58;;;8.95;;
76123;SDS011;65173;48.066;20.976;2022-11-22T08:31:47;23.25;;;9.48;;
76123;SDS011;65173;48.066;20.976;2022-11-22T08:34:50;22.70;;;8.57;;
76123;SDS011;65173;48.066;20.976;2022-11-22T08:37:56;23.65;;;8.73;;
76123;SDS011;65173;48.066;20.976;2022-11-22T08:40:58;20.05;;;8.80;;
76123;SDS011;65173;48.066;20.976;2022-11-22T08:44:01;23.33;;;8.80;;
76123;SDS011;65173;48.066;20.976;2022-11-22T08:47:04;21.58;;;9.35;;
76123;SDS011;65173;48.066;20.976;2022-11-22T08:50:06;23.92;;;9.40;;
76123;SDS011;65173;48.066;20.976;2022-11-22T08:53:10;19.57;;;8.63;;
76123;SDS011;65173;48.066;20.976;2022-11-22T08:56:14;22.02;;;9.77;;
76123;SDS011;65173;48.066;20.976;2022-11-22T08:59:17;23.90;;;8.88;;
76123;SDS011;65173;48.066;20.976;2022-11-22T09:02:20;24.63;;;11.25;;
76123;SDS011;65173;48.066;20.976;2022-11-22T09:05:23;23.75;;;10.32;;
76123;SDS011;65173;48.066;20.976;2022-11-22T09:08:26;22.58;;;9.55;;
76123;SDS011;65173;48.066;20.976;2022-11-22T09:11:35;22.52;;;10.82;;
76123;SDS011;65173;48.066;20.976;2022-11-22T09:14:37;20.10;;;9.97;;
76123;SDS011;65173;48.066;20.976;2022-11-22T09:17:42;23.15;;;10.27;;
76123;SDS011;65173;48.066;20.976;2022-11-22T09:20:45;20.27;;;9.77;;
76123;SDS011;65173;48.066;20.976;2022-11-22T09:23:48;21.30;;;11.40;;
76123;SDS011;65173;48.066;20.976;2022-11-22T09:26:53;30.20;;;13.15;;
76123;SDS011;65173;48.066;20.976;2022-11-22T09:29:59;25.90;;;11.43;;
76123;SDS011;65173;48.066;20.976;2022-11-22T09:33:02;25.30;;;9.85;;
76123;SDS011;65173;48.066;20.976;2022-11-22T09:36:09;26.08;;;10.85;;
76123;SDS011;65173;48.066;20.976;2022-11-22T09:39:14;26.00;;;12.27;;
76123;SDS011;65173;48.066;20.976;2022-11-22T09:49:13;19.98;;;9.57;;
76123;SDS011;65173;48.066;20.976;2022-11-22T09:52:34;20.92;;;8.80;;
76123;SDS011;65173;48.066;20.976;2022-11-22T09:55:46;19.87;;;8.33;;
76123;SDS011;65173;48.066;20.976;2022-11-22T09:59:01;20.60;;;8.95;;
76123;SDS011;65173;48.066;20.976;2022-11-22T10:02:11;17.38;;;8.45;;
76123;SDS011;65173;48.066;20.976;2022-11-22T10:05:26;20.17;;;8.77;;
76123;SDS011;65173;48.066;20.976;2022-11-22T10:21:38;21.13;;;9.02;;
76123;SDS011;65173;48.066;20.976;2022-11-22T10:24:42;16.58;;;7.95;;
76123;SDS011;65173;48.066;20.976;2022-11-22T10:27:52;18.67;;;8.60;;
76123;SDS011;65173;48.066;20.976;2022-11-22T10:45:41;30.45;;;12.80;;
76123;SDS011;65173;48.066;20.976;2022-11-22T10:49:02;54.05;;;18.60;;
76123;SDS011;65173;48.066;20.976;2022-11-22T11:10:04;34.83;;;12.30;;
76123;SDS011;65173;48.066;20.976;2022-11-22T11:13:37;24.80;;;11.40;;
76123;SDS011;65173;48.066;20.976;2022-11-22T11:16:46;23.42;;;9.20;;
76123;SDS011;65173;48.066;20.976;2022-11-22T11:19:52;20.77;;;9.23;;
76123;SDS011;65173;48.066;20.976;2022-11-22T11:23:00;29.35;;;10.95;;
76123;SDS011;65173;48.066;20.976;2022-11-22T11:32:55;27.63;;;11.27;;
76123;SDS011;65173;48.066;20.976;2022-11-22T11:36:04;74.07;;;26.07;;
76123;SDS011;65173;48.066;20.976;2022-11-22T11:39:21;36.20;;;16.20;;
76123;SDS011;65173;48.066;20.976;2022-11-22T11:42:32;21.35;;;10.70;;
76123;SDS011;65173;48.066;20.976;2022-11-22T11:45:38;25.73;;;11.23;;
76123;SDS011;65173;48.066;20.976;2022-11-22T11:48:52;25.30;;;12.05;;
76123;SDS011;65173;48.066;20.976;2022-11-22T11:52:18;26.00;;;11.27;;
76123;SDS011;65173;48.066;20.976;2022-11-22T11:55:29;23.60;;;10.10;;
76123;SDS011;65173;48.066;20.976;2022-11-22T11:58:36;23.20;;;10.40;;
76123;SDS011;65173;48.066;20.976;2022-11-22T12:01:52;24.58;;;9.48;;
76123;SDS011;65173;48.066;20.976;2022-11-22T12:08:27;24.37;;;10.83;;
76123;SDS011;65173;48.066;20.976;2022-11-22T12:11:39;27.30;;;10.35;;
76123;SDS011;65173;48.066;20.976;2022-11-22T12:14:50;19.67;;;9.65;;
76123;SDS011;65173;48.066;20.976;2022-11-22T12:21:35;31.20;;;12.15;;
76123;SDS011;65173;48.066;20.976;2022-11-22T12:28:30;27.17;;;12.82;;
76123;SDS011;65173;48.066;20.976;2022-11-22T12:34:55;59.40;;;20.95;;
76123;SDS011;65173;48.066;20.976;2022-11-22T12:38:15;38.60;;;16.13;;
76123;SDS011;65173;48.066;20.976;2022-11-22T12:41:21;61.53;;;22.87;;
76123;SDS011;65173;48.066;20.976;2022-11-22T12:44:31;94.03;;;31.35;;
76123;SDS011;65173;48.066;20.976;2022-11-22T12:47:38;46.30;;;17.23;;
76123;SDS011;65173;48.066;20.976;2022-11-22T12:50:45;26.05;;;10.50;;
76123;SDS011;65173;48.066;20.976;2022-11-22T12:53:50;27.50;;;12.40;;
76123;SDS011;65173;48.066;20.976;2022-11-22T12:56:59;27.08;;;11.75;;
76123;SDS011;65173;48.066;20.976;2022-11-22T13:00:12;26.70;;;10.88;;
76123;SDS011;65173;48.066;20.976;2022-11-22T13:03:21;27.10;;;12.17;;
76123;SDS011;65173;48.066;20.976;2022-11-22T13:06:33;32.95;;;15.05;;
76123;SDS011;65173;48.066;20.976;2022-11-22T13:09:50;31.42;;;14.02;;
76123;SDS011;65173;48.066;20.976;2022-11-22T13:12:57;53.33;;;21.70;;
76123;SDS011;65173;48.066;20.976;2022-11-22T13:16:05;41.28;;;17.05;;
76123;SDS011;65173;48.066;20.976;2022-11-22T13:19:12;28.13;;;12.70;;
76123;SDS011;65173;48.066;20.976;2022-11-22T13:29:01;23.88;;;9.82;;
76123;SDS011;65173;48.066;20.976;2022-11-22T13:38:16;27.70;;;12.52;;
76123;SDS011;65173;48.066;20.976;2022-11-22T13:47:58;29.58;;;12.85;;
76123;SDS011;65173;48.066;20.976;2022-11-22T13:51:01;24.33;;;13.27;;
76123;SDS011;65173;48.066;20.976;2022-11-22T13:57:48;21.45;;;9.50;;
76123;SDS011;65173;48.066;20.976;2022-11-22T14:00:54;26.80;;;11.57;;
76123;SDS011;65173;48.066;20.976;2022-11-22T14:07:32;21.47;;;9.50;;
76123;SDS011;65173;48.066;20.976;2022-11-22T14:14:07;21.55;;;11.40;;
76123;SDS011;65173;48.066;20.976;2022-11-22T14:21:03;30.83;;;14.23;;
76123;SDS011;65173;48.066;20.976;2022-11-22T14:27:31;27.05;;;12.68;;
76123;SDS011;65173;48.066;20.976;2022-11-22T14:34:22;30.02;;;15.43;;
76123;SDS011;65173;48.066;20.976;2022-11-22T14:40:36;28.70;;;14.67;;
76123;SDS011;65173;48.066;20.976;2022-11-22T14:47:23;28.17;;;14.23;;
76123;SDS011;65173;48.066;20.976;2022-11-22T14:50:31;30.37;;;16.30;;
76123;SDS011;65173;48.066;20.976;2022-11-22T14:53:44;34.30;;;17.38;;
76123;SDS011;65173;48.066;20.976;2022-11-22T14:56:52;32.85;;;18.30;;
76123;SDS011;65173;48.066;20.976;2022-11-22T15:06:39;32.50;;;15.82;;
76123;SDS011;65173;48.066;20.976;2022-11-22T15:16:53;31.95;;;17.65;;
76123;SDS011;65173;48.066;20.976;2022-11-22T15:20:35;33.38;;;17.05;;
76123;SDS011;65173;48.066;20.976;2022-11-22T15:24:00;37.47;;;19.87;;
76123;SDS011;65173;48.066;20.976;2022-11-22T15:31:16;39.92;;;18.98;;
76123;SDS011;65173;48.066;20.976;2022-11-22T15:34:43;38.55;;;18.08;;
76123;SDS011;65173;48.066;20.976;2022-11-22T15:38:10;35.75;;;18.08;;
76123;SDS011;65173;48.066;20.976;2022-11-22T15:41:33;38.80;;;19.17;;
76123;SDS011;65173;48.066;20.976;2022-11-22T15:44:57;33.67;;;17.45;;
76123;SDS011;65173;48.066;20.976;2022-11-22T15:48:25;29.73;;;15.67;;
76123;SDS011;65173;48.066;20.976;2022-11-22T15:51:53;29.08;;;14.23;;
76123;SDS011;65173;48.066;20.976;2022-11-22T15:55:18;31.42;;;15.35;;
76123;SDS011;65173;48.066;20.976;2022-11-22T15:58:45;27.20;;;13.70;;
76123;SDS011;65173;48.066;20.976;2022-11-22T16:01:51;20.92;;;11.10;;
76123;SDS011;65173;48.066;20.976;2022-11-22T16:04:58;29.55;;;12.18;;
76123;SDS011;65173;48.066;20.976;2022-11-22T16:08:26;29.60;;;13.75;;
76123;SDS011;65173;48.066;20.976;2022-11-22T16:11:35;25.95;;;12.60;;
76123;SDS011;65173;48.066;20.976;2022-11-22T16:14:48;25.50;;;13.60;;
76123;SDS011;65173;48.066;20.976;2022-11-22T16:17:52;24.63;;;12.25;;
76123;SDS011;65173;48.066;20.976;2022-11-22T16:24:07;23.45;;;12.52;;
76123;SDS011;65173;48.066;20.976;2022-11-22T16:27:16;23.00;;;12.00;;
76123;SDS011;65173;48.066;20.976;2022-11-22T16:30:19;26.30;;;11.43;;
76123;SDS011;65173;48.066;20.976;2022-11-22T16:33:25;29.35;;;12.70;;
76123;SDS011;65173;48.066;20.976;2022-11-22T16:36:27;30.10;;;15.60;;
76123;SDS011;65173;48.066;20.976;2022-11-22T16:39:31;29.40;;;15.30;;
76123;SDS011;65173;48.066;20.976;2022-11-22T16:42:35;27.90;;;13.38;;
76123;SDS011;65173;48.066;20.976;2022-11-22T16:45:39;23.13;;;11.73;;
76123;SDS011;65173;48.066;20.976;2022-11-22T16:48:42;27.70;;;13.50;;
76123;SDS011;65173;48.066;20.976;2022-11-22T16:51:49;24.93;;;12.23;;
76123;SDS011;65173;48.066;20.976;2022-11-22T16:54:52;27.25;;;13.07;;
76123;SDS011;65173;48.066;20.976;2022-11-22T16:57:55;28.13;;;13.65;;
76123;SDS011;65173;48.066;20.976;2022-11-22T17:00:58;26.83;;;13.50;;
76123;SDS011;65173;48.066;20.976;2022-11-22T17:04:02;35.55;;;14.05;;
76123;SDS011;65173;48.066;20.976;2022-11-22T17:07:09;30.42;;;15.27;;
76123;SDS011;65173;48.066;20.976;2022-11-22T17:10:13;32.17;;;14.70;;
76123;SDS011;65173;48.066;20.976;2022-11-22T17:13:17;30.45;;;15.65;;
76123;SDS011;65173;48.066;20.976;2022-11-22T17:16:22;30.33;;;15.82;;
76123;SDS011;65173;48.066;20.976;2022-11-22T17:19:24;32.17;;;16.15;;
76123;SDS011;65173;48.066;20.976;2022-11-22T17:22:47;33.30;;;15.33;;
76123;SDS011;65173;48.066;20.976;2022-11-22T17:25:50;34.33;;;15.35;;
76123;SDS011;65173;48.066;20.976;2022-11-22T17:28:53;37.83;;;15.48;;
76123;SDS011;65173;48.066;20.976;2022-11-22T17:31:56;28.57;;;15.00;;
76123;SDS011;65173;48.066;20.976;2022-11-22T17:34:59;30.67;;;16.15;;
76123;SDS011;65173;48.066;20.976;2022-11-22T17:38:02;35.70;;;17.75;;
76123;SDS011;65173;48.066;20.976;2022-11-22T17:41:06;36.40;;;16.20;;
76123;SDS011;65173;48.066;20.976;2022-11-22T17:44:13;30.67;;;15.25;;
76123;SDS011;65173;48.066;20.976;2022-11-22T17:47:17;33.95;;;15.63;;
76123;SDS011;65173;48.066;20.976;2022-11-22T17:50:20;29.75;;;14.60;;
76123;SDS011;65173;48.066;20.976;2022-11-22T17:53:23;29.23;;;14.47;;
76123;SDS011;65173;48.066;20.976;2022-11-22T17:56:26;32.22;;;13.75;;
76123;SDS011;65173;48.066;20.976;2022-11-22T17:59:31;33.17;;;15.30;;
76123;SDS011;65173;48.066;20.976;2022-11-22T18:02:34;32.57;;;13.97;;
76123;SDS011;65173;48.066;20.976;2022-11-22T18:05:37;46.47;;;20.25;;
76123;SDS011;65173;48.066;20.976;2022-11-22T18:08:40;49.10;;;21.73;;
76123;SDS011;65173;48.066;20.976;2022-11-22T18:11:48;47.83;;;21.75;;
76123;SDS011;65173;48.066;20.976;2022-11-22T18:14:51;45.80;;;21.88;;
76123;SDS011;65173;48.066;20.976;2022-11-22T18:17:54;50.95;;;22.95;;
76123;SDS011;65173;48.066;20.976;2022-11-22T18:20:57;36.65;;;20.65;;
76123;SDS011;65173;48.066;20.976;2022-11-22T18:24:00;42.10;;;19.70;;
76123;SDS011;65173;48.066;20.976;2022-11-22T18:27:03;54.97;;;24.85;;
76123;SDS011;65173;48.066;20.976;2022-11-22T18:30:06;47.63;;;21.80;;
76123;SDS011;65173;48.066;20.976;2022-11-22T18:33:09;38.97;;;19.17;;
76123;SDS011;65173;48.066;20.976;2022-11-22T18:36:22;36.55;;;18.85;;
76123;SDS011;65173;48.066;20.976;2022-11-22T18:39:46;57.15;;;26.58;;
76123;SDS011;65173;48.066;20.976;2022-11-22T18:42:49;42.97;;;19.58;;
76123;SDS011;65173;48.066;20.976;2022-11-22T18:46:02;39.13;;;18.23;;
76123;SDS011;65173;48.066;20.976;2022-11-22T18:49:06;40.42;;;19.33;;
76123;SDS011;65173;48.066;20.976;2022-11-22T18:52:09;37.53;;;20.23;;
76123;SDS011;65173;48.066;20.976;2022-11-22T18:55:18;40.60;;;20.60;;
76123;SDS011;65173;48.066;20.976;2022-11-22T18:58:21;38.15;;;19.83;;
76123;SDS011;65173;48.066;20.976;2022-11-22T19:01:24;46.38;;;21.17;;
76123;SDS011;65173;48.066;20.976;2022-11-22T19:04:28;48.10;;;21.87;;
76123;SDS011;65173;48.066;20.976;2022-11-22T19:07:31;49.67;;;22.17;;
76123;SDS011;65173;48.066;20.976;2022-11-22T19:10:34;49.83;;;23.77;;
76123;SDS011;65173;48.066;20.976;2022-11-22T19:13:38;59.83;;;30.10;;
76123;SDS011;65173;48.066;20.976;2022-11-22T19:16:42;72.35;;;33.28;;
76123;SDS011;65173;48.066;20.976;2022-11-22T19:19:45;65.60;;;31.10;;
76123;SDS011;65173;48.066;20.976;2022-11-22T19:22:49;57.47;;;29.90;;
76123;SDS011;65173;48.066;20.976;2022-11-22T19:25:51;53.93;;;23.03;;
76123;SDS011;65173;48.066;20.976;2022-11-22T19:28:55;49.92;;;23.25;;
76123;SDS011;65173;48.066;20.976;2022-11-22T19:32:02;47.65;;;23.42;;
76123;SDS011;65173;48.066;20.976;2022-11-22T19:35:04;48.60;;;26.63;;
76123;SDS011;65173;48.066;20.976;2022-11-22T19:38:09;54.85;;;24.27;;
76123;SDS011;65173;48.066;20.976;2022-11-22T19:41:15;44.80;;;24.27;;
76123;SDS011;65173;48.066;20.976;2022-11-22T19:44:20;40.30;;;20.05;;
76123;SDS011;65173;48.066;20.976;2022-11-22T19:47:23;39.83;;;19.42;;
76123;SDS011;65173;48.066;20.976;2022-11-22T19:50:28;38.72;;;20.38;;
76123;SDS011;65173;48.066;20.976;2022-11-22T19:53:31;43.15;;;18.52;;
76123;SDS011;65173;48.066;20.976;2022-11-22T19:56:35;39.37;;;18.97;;
76123;SDS011;65173;48.066;20.976;2022-11-22T19:59:38;42.60;;;19.73;;
76123;SDS011;65173;48.066;20.976;2022-11-22T20:02:42;38.13;;;17.67;;
76123;SDS011;65173;48.066;20.976;2022-11-22T20:05:44;31.67;;;16.80;;
76123;SDS011;65173;48.066;20.976;2022-11-22T20:08:47;32.13;;;16.40;;
76123;SDS011;65173;48.066;20.976;2022-11-22T20:11:51;28.15;;;14.38;;
76123;SDS011;65173;48.066;20.976;2022-11-22T20:14:54;24.95;;;12.98;;
76123;SDS011;65173;48.066;20.976;2022-11-22T20:17:57;41.00;;;18.30;;
76123;SDS011;65173;48.066;20.976;2022-11-22T20:21:00;71.05;;;28.35;;
76123;SDS011;65173;48.066;20.976;2022-11-22T20:24:04;67.10;;;25.95;;
76123;SDS011;65173;48.066;20.976;2022-11-22T20:27:07;134.87;;;46.20;;